sensor_id;sensor_type;location;lat;lon;timestamp;P1;durP1;ratioP1;P2;durP2;ratioP2
22490;SDS011;11412;50.802;4.350;2022-10-16T00:00:40;0.57;;;0.55;;
22490;SDS011;11412;50.802;4.350;2022-10-16T00:03:07;1.77;;;0.63;;
22490;SDS011;11412;50.802;4.350;2022-10-16T00:05:33;3.67;;;0.63;;
22490;SDS011;11412;50.802;4.350;2022-10-16T00:08:04;4.18;;;0.95;;
22490;SDS011;11412;50.802;4.350;2022-10-16T00:10:30;1.77;;;0.60;;
22490;SDS011;11412;50.802;4.350;2022-10-16T00:12:55;1.02;;;0.60;;
22490;SDS011;11412;50.802;4.350;2022-10-16T00:15:21;1.85;;;0.60;;
22490;SDS011;11412;50.802;4.350;2022-10-16T00:17:46;2.05;;;0.80;;
22490;SDS011;11412;50.802;4.350;2022-10-16T00:20:12;4.00;;;0.80;;
22490;SDS011;11412;50.802;4.350;2022-10-16T00:22:38;2.47;;;0.70;;
22490;SDS011;11412;50.802;4.350;2022-10-16T00:25:03;1.77;;;0.55;;
22490;SDS011;11412;50.802;4.350;2022-10-16T00:27:29;1.23;;;0.70;;
22490;SDS011;11412;50.802;4.350;2022-10-16T00:29:55;2.67;;;0.80;;
22490;SDS011;11412;50.802;4.350;2022-10-16T00:32:20;0.80;;;0.80;;
22490;SDS011;11412;50.802;4.350;2022-10-16T00:34:46;0.80;;;0.80;;
22490;SDS011;11412;50.802;4.350;2022-10-16T00:37:12;2.45;;;0.82;;
22490;SDS011;11412;50.802;4.350;2022-10-16T00:39:38;3.78;;;0.93;;
22490;SDS011;11412;50.802;4.350;2022-10-16T00:42:03;0.90;;;0.70;;
22490;SDS011;11412;50.802;4.350;2022-10-16T00:47:24;1.38;;;0.55;;
22490;SDS011;11412;50.802;4.350;2022-10-16T00:49:56;1.50;;;0.70;;
22490;SDS011;11412;50.802;4.350;2022-10-16T00:52:34;0.93;;;0.90;;
22490;SDS011;11412;50.802;4.350;2022-10-16T00:55:02;1.10;;;1.00;;
22490;SDS011;11412;50.802;4.350;2022-10-16T00:57:29;1.08;;;0.93;;
22490;SDS011;11412;50.802;4.350;2022-10-16T00:59:55;1.13;;;0.88;;
22490;SDS011;11412;50.802;4.350;2022-10-16T01:02:22;0.88;;;0.70;;
22490;SDS011;11412;50.802;4.350;2022-10-16T01:04:49;1.85;;;0.70;;
22490;SDS011;11412;50.802;4.350;2022-10-16T01:12:49;0.98;;;0.85;;
22490;SDS011;11412;50.802;4.350;2022-10-16T01:18:06;0.77;;;0.70;;
22490;SDS011;11412;50.802;4.350;2022-10-16T01:20:38;1.98;;;0.70;;
22490;SDS011;11412;50.802;4.350;2022-10-16T01:25:59;3.90;;;1.00;;
22490;SDS011;11412;50.802;4.350;2022-10-16T01:31:22;2.72;;;0.80;;
22490;SDS011;11412;50.802;4.350;2022-10-16T01:33:53;1.23;;;1.08;;
22490;SDS011;11412;50.802;4.350;2022-10-16T01:38:53;1.00;;;0.95;;
22490;SDS011;11412;50.802;4.350;2022-10-16T01:41:23;1.45;;;1.17;;
22490;SDS011;11412;50.802;4.350;2022-10-16T01:44:01;3.03;;;0.90;;
22490;SDS011;11412;50.802;4.350;2022-10-16T01:46:48;4.63;;;1.00;;
22490;SDS011;11412;50.802;4.350;2022-10-16T01:49:17;1.67;;;1.20;;
22490;SDS011;11412;50.802;4.350;2022-10-16T01:51:46;1.88;;;1.00;;
22490;SDS011;11412;50.802;4.350;2022-10-16T01:54:14;2.67;;;1.05;;
22490;SDS011;11412;50.802;4.350;2022-10-16T01:56:44;2.58;;;0.77;;
22490;SDS011;11412;50.802;4.350;2022-10-16T01:59:13;3.00;;;1.17;;
22490;SDS011;11412;50.802;4.350;2022-10-16T02:01:42;1.20;;;1.10;;
22490;SDS011;11412;50.802;4.350;2022-10-16T02:04:37;1.13;;;1.02;;
22490;SDS011;11412;50.802;4.350;2022-10-16T02:07:36;4.50;;;1.10;;
22490;SDS011;11412;50.802;4.350;2022-10-16T02:10:02;1.33;;;0.95;;
22490;SDS011;11412;50.802;4.350;2022-10-16T02:12:29;3.05;;;1.20;;
22490;SDS011;11412;50.802;4.350;2022-10-16T02:14:57;5.88;;;1.10;;
22490;SDS011;11412;50.802;4.350;2022-10-16T02:17:23;3.38;;;1.15;;
22490;SDS011;11412;50.802;4.350;2022-10-16T02:19:50;2.72;;;1.30;;
22490;SDS011;11412;50.802;4.350;2022-10-16T02:22:24;0.95;;;0.82;;
22490;SDS011;11412;50.802;4.350;2022-10-16T02:30:11;3.65;;;1.30;;
22490;SDS011;11412;50.802;4.350;2022-10-16T02:32:48;1.20;;;1.10;;
22490;SDS011;11412;50.802;4.350;2022-10-16T02:35:16;1.40;;;0.90;;
22490;SDS011;11412;50.802;4.350;2022-10-16T02:37:43;1.08;;;0.88;;
22490;SDS011;11412;50.802;4.350;2022-10-16T02:40:11;4.40;;;0.82;;
22490;SDS011;11412;50.802;4.350;2022-10-16T02:42:38;3.47;;;1.35;;
22490;SDS011;11412;50.802;4.350;2022-10-16T02:45:05;3.75;;;1.40;;
22490;SDS011;11412;50.802;4.350;2022-10-16T02:47:32;2.42;;;1.02;;
22490;SDS011;11412;50.802;4.350;2022-10-16T02:49:58;2.15;;;1.33;;
22490;SDS011;11412;50.802;4.350;2022-10-16T02:52:23;2.10;;;1.15;;
22490;SDS011;11412;50.802;4.350;2022-10-16T02:54:49;1.40;;;1.30;;
22490;SDS011;11412;50.802;4.350;2022-10-16T02:57:15;4.88;;;1.20;;
22490;SDS011;11412;50.802;4.350;2022-10-16T02:59:41;2.03;;;1.38;;
22490;SDS011;11412;50.802;4.350;2022-10-16T03:02:06;2.30;;;1.08;;
22490;SDS011;11412;50.802;4.350;2022-10-16T03:04:32;2.28;;;1.10;;
22490;SDS011;11412;50.802;4.350;2022-10-16T03:06:58;2.72;;;1.25;;
22490;SDS011;11412;50.802;4.350;2022-10-16T03:09:23;3.70;;;1.10;;
22490;SDS011;11412;50.802;4.350;2022-10-16T03:11:49;1.58;;;1.17;;
22490;SDS011;11412;50.802;4.350;2022-10-16T03:14:15;2.92;;;1.15;;
22490;SDS011;11412;50.802;4.350;2022-10-16T03:16:40;1.27;;;1.13;;
22490;SDS011;11412;50.802;4.350;2022-10-16T03:19:06;6.38;;;1.20;;
22490;SDS011;11412;50.802;4.350;2022-10-16T03:21:32;1.25;;;1.10;;
22490;SDS011;11412;50.802;4.350;2022-10-16T03:23:58;1.90;;;1.15;;
22490;SDS011;11412;50.802;4.350;2022-10-16T03:26:23;3.70;;;1.00;;
22490;SDS011;11412;50.802;4.350;2022-10-16T03:28:49;3.50;;;1.20;;
22490;SDS011;11412;50.802;4.350;2022-10-16T03:31:14;1.85;;;1.00;;
22490;SDS011;11412;50.802;4.350;2022-10-16T03:33:40;2.78;;;1.23;;
22490;SDS011;11412;50.802;4.350;2022-10-16T03:36:06;3.85;;;1.10;;
22490;SDS011;11412;50.802;4.350;2022-10-16T03:38:31;1.13;;;1.10;;
22490;SDS011;11412;50.802;4.350;2022-10-16T03:40:57;1.90;;;1.10;;
22490;SDS011;11412;50.802;4.350;2022-10-16T03:43:23;3.13;;;1.20;;
22490;SDS011;11412;50.802;4.350;2022-10-16T03:45:52;1.90;;;1.10;;
22490;SDS011;11412;50.802;4.350;2022-10-16T03:48:18;4.15;;;1.30;;
22490;SDS011;11412;50.802;4.350;2022-10-16T03:50:44;6.88;;;1.13;;
22490;SDS011;11412;50.802;4.350;2022-10-16T03:53:11;5.75;;;1.48;;
22490;SDS011;11412;50.802;4.350;2022-10-16T03:55:36;2.25;;;1.48;;
22490;SDS011;11412;50.802;4.350;2022-10-16T03:58:02;5.97;;;1.20;;
22490;SDS011;11412;50.802;4.350;2022-10-16T04:00:28;4.22;;;1.00;;
22490;SDS011;11412;50.802;4.350;2022-10-16T04:02:53;4.53;;;1.65;;
22490;SDS011;11412;50.802;4.350;2022-10-16T04:05:19;1.40;;;1.10;;
22490;SDS011;11412;50.802;4.350;2022-10-16T04:07:45;5.68;;;1.45;;
22490;SDS011;11412;50.802;4.350;2022-10-16T04:10:11;6.25;;;2.15;;
22490;SDS011;11412;50.802;4.350;2022-10-16T04:12:36;2.75;;;1.20;;
22490;SDS011;11412;50.802;4.350;2022-10-16T04:15:02;1.35;;;1.00;;
22490;SDS011;11412;50.802;4.350;2022-10-16T04:17:28;1.42;;;1.30;;
22490;SDS011;11412;50.802;4.350;2022-10-16T04:19:54;2.72;;;1.15;;
22490;SDS011;11412;50.802;4.350;2022-10-16T04:22:19;2.97;;;1.10;;
22490;SDS011;11412;50.802;4.350;2022-10-16T04:24:45;2.17;;;1.17;;
22490;SDS011;11412;50.802;4.350;2022-10-16T04:27:10;4.53;;;1.17;;
22490;SDS011;11412;50.802;4.350;2022-10-16T04:29:36;5.22;;;1.10;;
22490;SDS011;11412;50.802;4.350;2022-10-16T04:32:02;1.88;;;1.05;;
22490;SDS011;11412;50.802;4.350;2022-10-16T04:34:27;2.80;;;1.10;;
22490;SDS011;11412;50.802;4.350;2022-10-16T04:36:53;3.50;;;1.15;;
22490;SDS011;11412;50.802;4.350;2022-10-16T04:39:19;2.50;;;1.10;;
22490;SDS011;11412;50.802;4.350;2022-10-16T04:41:44;3.50;;;1.08;;
22490;SDS011;11412;50.802;4.350;2022-10-16T04:44:10;2.92;;;1.85;;
22490;SDS011;11412;50.802;4.350;2022-10-16T04:46:36;4.13;;;1.23;;
22490;SDS011;11412;50.802;4.350;2022-10-16T04:49:01;2.30;;;1.10;;
22490;SDS011;11412;50.802;4.350;2022-10-16T04:51:27;4.88;;;1.10;;
22490;SDS011;11412;50.802;4.350;2022-10-16T04:53:53;2.17;;;1.30;;
22490;SDS011;11412;50.802;4.350;2022-10-16T04:56:20;0.90;;;0.90;;
22490;SDS011;11412;50.802;4.350;2022-10-16T04:58:46;2.85;;;1.50;;
22490;SDS011;11412;50.802;4.350;2022-10-16T05:01:12;5.15;;;1.58;;
22490;SDS011;11412;50.802;4.350;2022-10-16T05:03:38;6.32;;;2.67;;
22490;SDS011;11412;50.802;4.350;2022-10-16T05:06:07;4.38;;;1.30;;
22490;SDS011;11412;50.802;4.350;2022-10-16T05:08:33;1.42;;;1.33;;
22490;SDS011;11412;50.802;4.350;2022-10-16T05:10:58;7.00;;;1.40;;
22490;SDS011;11412;50.802;4.350;2022-10-16T05:13:25;4.57;;;1.38;;
22490;SDS011;11412;50.802;4.350;2022-10-16T05:15:51;1.80;;;1.30;;
22490;SDS011;11412;50.802;4.350;2022-10-16T05:18:17;4.32;;;1.60;;
22490;SDS011;11412;50.802;4.350;2022-10-16T05:20:43;6.47;;;1.75;;
22490;SDS011;11412;50.802;4.350;2022-10-16T05:23:08;5.50;;;1.60;;
22490;SDS011;11412;50.802;4.350;2022-10-16T05:25:37;5.25;;;1.60;;
22490;SDS011;11412;50.802;4.350;2022-10-16T05:28:03;2.15;;;1.45;;
22490;SDS011;11412;50.802;4.350;2022-10-16T05:30:29;3.95;;;1.90;;
22490;SDS011;11412;50.802;4.350;2022-10-16T05:32:54;1.67;;;1.27;;
22490;SDS011;11412;50.802;4.350;2022-10-16T05:35:20;8.35;;;2.08;;
22490;SDS011;11412;50.802;4.350;2022-10-16T05:37:46;5.15;;;1.38;;
22490;SDS011;11412;50.802;4.350;2022-10-16T05:40:12;10.80;;;1.42;;
22490;SDS011;11412;50.802;4.350;2022-10-16T05:42:38;2.13;;;1.42;;
22490;SDS011;11412;50.802;4.350;2022-10-16T05:45:05;3.53;;;1.30;;
22490;SDS011;11412;50.802;4.350;2022-10-16T05:47:34;3.30;;;1.27;;
22490;SDS011;11412;50.802;4.350;2022-10-16T05:49:59;3.70;;;1.80;;
22490;SDS011;11412;50.802;4.350;2022-10-16T05:52:26;1.30;;;1.10;;
22490;SDS011;11412;50.802;4.350;2022-10-16T05:54:52;2.17;;;1.60;;
22490;SDS011;11412;50.802;4.350;2022-10-16T05:57:18;1.85;;;1.40;;
22490;SDS011;11412;50.802;4.350;2022-10-16T05:59:43;1.63;;;1.40;;
22490;SDS011;11412;50.802;4.350;2022-10-16T06:02:12;8.68;;;1.52;;
22490;SDS011;11412;50.802;4.350;2022-10-16T06:04:38;4.40;;;1.20;;
22490;SDS011;11412;50.802;4.350;2022-10-16T06:07:04;6.03;;;1.63;;
22490;SDS011;11412;50.802;4.350;2022-10-16T06:09:30;1.98;;;1.25;;
22490;SDS011;11412;50.802;4.350;2022-10-16T06:11:55;1.50;;;1.35;;
22490;SDS011;11412;50.802;4.350;2022-10-16T06:14:21;3.03;;;1.40;;
22490;SDS011;11412;50.802;4.350;2022-10-16T06:16:47;1.50;;;1.42;;
22490;SDS011;11412;50.802;4.350;2022-10-16T06:19:12;3.80;;;1.40;;
22490;SDS011;11412;50.802;4.350;2022-10-16T06:21:38;2.88;;;1.30;;
22490;SDS011;11412;50.802;4.350;2022-10-16T06:24:03;3.70;;;1.70;;
22490;SDS011;11412;50.802;4.350;2022-10-16T06:26:30;3.60;;;1.30;;
22490;SDS011;11412;50.802;4.350;2022-10-16T06:28:56;4.88;;;1.40;;
22490;SDS011;11412;50.802;4.350;2022-10-16T06:31:23;3.40;;;1.38;;
22490;SDS011;11412;50.802;4.350;2022-10-16T06:33:55;2.90;;;1.40;;
22490;SDS011;11412;50.802;4.350;2022-10-16T06:36:21;1.63;;;1.25;;
22490;SDS011;11412;50.802;4.350;2022-10-16T06:38:48;5.70;;;1.40;;
22490;SDS011;11412;50.802;4.350;2022-10-16T06:41:14;4.15;;;2.00;;
22490;SDS011;11412;50.802;4.350;2022-10-16T06:43:41;4.15;;;1.52;;
22490;SDS011;11412;50.802;4.350;2022-10-16T06:46:09;6.38;;;1.45;;
22490;SDS011;11412;50.802;4.350;2022-10-16T06:48:36;3.58;;;1.40;;
22490;SDS011;11412;50.802;4.350;2022-10-16T06:51:03;2.70;;;1.20;;
22490;SDS011;11412;50.802;4.350;2022-10-16T06:53:32;4.15;;;1.40;;
22490;SDS011;11412;50.802;4.350;2022-10-16T06:56:12;2.35;;;1.13;;
22490;SDS011;11412;50.802;4.350;2022-10-16T06:58:40;1.92;;;1.27;;
22490;SDS011;11412;50.802;4.350;2022-10-16T07:01:06;3.33;;;1.50;;
22490;SDS011;11412;50.802;4.350;2022-10-16T07:03:35;3.55;;;1.73;;
22490;SDS011;11412;50.802;4.350;2022-10-16T07:06:02;3.20;;;1.60;;
22490;SDS011;11412;50.802;4.350;2022-10-16T07:08:32;3.53;;;1.10;;
22490;SDS011;11412;50.802;4.350;2022-10-16T07:11:04;1.83;;;1.50;;
22490;SDS011;11412;50.802;4.350;2022-10-16T07:13:35;5.50;;;1.30;;
22490;SDS011;11412;50.802;4.350;2022-10-16T07:16:34;2.13;;;1.38;;
22490;SDS011;11412;50.802;4.350;2022-10-16T07:18:54;3.97;;;1.58;;
22490;SDS011;11412;50.802;4.350;2022-10-16T07:21:24;2.95;;;1.23;;
22490;SDS011;11412;50.802;4.350;2022-10-16T07:23:55;6.13;;;1.58;;
22490;SDS011;11412;50.802;4.350;2022-10-16T07:26:23;3.92;;;1.65;;
22490;SDS011;11412;50.802;4.350;2022-10-16T07:28:49;3.45;;;1.98;;
22490;SDS011;11412;50.802;4.350;2022-10-16T07:31:17;5.47;;;1.90;;
22490;SDS011;11412;50.802;4.350;2022-10-16T07:33:44;2.47;;;1.52;;
22490;SDS011;11412;50.802;4.350;2022-10-16T07:36:11;3.58;;;1.80;;
22490;SDS011;11412;50.802;4.350;2022-10-16T07:38:37;3.83;;;1.70;;
22490;SDS011;11412;50.802;4.350;2022-10-16T07:41:04;2.78;;;1.63;;
22490;SDS011;11412;50.802;4.350;2022-10-16T07:43:32;2.60;;;1.80;;
22490;SDS011;11412;50.802;4.350;2022-10-16T07:45:58;2.97;;;1.60;;
22490;SDS011;11412;50.802;4.350;2022-10-16T07:48:26;3.85;;;1.88;;
22490;SDS011;11412;50.802;4.350;2022-10-16T07:50:56;2.85;;;1.55;;
22490;SDS011;11412;50.802;4.350;2022-10-16T07:53:25;5.38;;;1.92;;
22490;SDS011;11412;50.802;4.350;2022-10-16T07:55:52;3.33;;;1.58;;
22490;SDS011;11412;50.802;4.350;2022-10-16T07:58:21;4.05;;;1.48;;
22490;SDS011;11412;50.802;4.350;2022-10-16T08:00:47;9.38;;;1.73;;
22490;SDS011;11412;50.802;4.350;2022-10-16T08:03:13;5.10;;;1.70;;
22490;SDS011;11412;50.802;4.350;2022-10-16T08:05:40;3.83;;;1.40;;
22490;SDS011;11412;50.802;4.350;2022-10-16T08:08:06;7.20;;;2.00;;
22490;SDS011;11412;50.802;4.350;2022-10-16T08:10:31;5.03;;;1.83;;
22490;SDS011;11412;50.802;4.350;2022-10-16T08:12:57;2.53;;;2.00;;
22490;SDS011;11412;50.802;4.350;2022-10-16T08:15:23;1.58;;;1.42;;
22490;SDS011;11412;50.802;4.350;2022-10-16T08:17:59;5.95;;;2.20;;
22490;SDS011;11412;50.802;4.350;2022-10-16T08:20:27;1.60;;;1.50;;
22490;SDS011;11412;50.802;4.350;2022-10-16T08:22:53;4.13;;;1.58;;
22490;SDS011;11412;50.802;4.350;2022-10-16T08:25:20;6.68;;;1.40;;
22490;SDS011;11412;50.802;4.350;2022-10-16T08:27:49;1.65;;;1.13;;
22490;SDS011;11412;50.802;4.350;2022-10-16T08:30:17;2.17;;;1.20;;
22490;SDS011;11412;50.802;4.350;2022-10-16T08:32:43;2.90;;;1.20;;
22490;SDS011;11412;50.802;4.350;2022-10-16T08:35:10;4.97;;;1.30;;
22490;SDS011;11412;50.802;4.350;2022-10-16T08:37:36;4.63;;;1.30;;
22490;SDS011;11412;50.802;4.350;2022-10-16T08:40:03;2.78;;;1.05;;
22490;SDS011;11412;50.802;4.350;2022-10-16T08:43:24;5.13;;;1.52;;
22490;SDS011;11412;50.802;4.350;2022-10-16T08:46:03;4.43;;;1.60;;
22490;SDS011;11412;50.802;4.350;2022-10-16T08:48:43;3.70;;;1.38;;
22490;SDS011;11412;50.802;4.350;2022-10-16T08:51:19;4.43;;;1.17;;
22490;SDS011;11412;50.802;4.350;2022-10-16T08:53:54;4.68;;;1.05;;
22490;SDS011;11412;50.802;4.350;2022-10-16T08:56:22;4.47;;;1.20;;
22490;SDS011;11412;50.802;4.350;2022-10-16T08:58:49;7.57;;;1.27;;
22490;SDS011;11412;50.802;4.350;2022-10-16T09:01:17;7.22;;;1.33;;
22490;SDS011;11412;50.802;4.350;2022-10-16T09:06:45;5.35;;;1.00;;
22490;SDS011;11412;50.802;4.350;2022-10-16T09:14:57;3.47;;;1.63;;
22490;SDS011;11412;50.802;4.350;2022-10-16T09:17:53;4.40;;;1.27;;
22490;SDS011;11412;50.802;4.350;2022-10-16T09:23:26;5.32;;;1.30;;
22490;SDS011;11412;50.802;4.350;2022-10-16T09:25:54;3.17;;;1.02;;
22490;SDS011;11412;50.802;4.350;2022-10-16T09:28:21;4.07;;;1.17;;
22490;SDS011;11412;50.802;4.350;2022-10-16T09:30:47;4.10;;;1.40;;
22490;SDS011;11412;50.802;4.350;2022-10-16T09:33:16;3.67;;;1.27;;
22490;SDS011;11412;50.802;4.350;2022-10-16T09:35:48;2.65;;;0.80;;
22490;SDS011;11412;50.802;4.350;2022-10-16T09:38:30;6.78;;;1.05;;
22490;SDS011;11412;50.802;4.350;2022-10-16T09:40:58;4.45;;;1.17;;
22490;SDS011;11412;50.802;4.350;2022-10-16T09:46:05;4.50;;;1.33;;
22490;SDS011;11412;50.802;4.350;2022-10-16T09:48:46;4.97;;;1.35;;
22490;SDS011;11412;50.802;4.350;2022-10-16T09:53:53;2.63;;;1.10;;
22490;SDS011;11412;50.802;4.350;2022-10-16T09:56:46;4.60;;;1.42;;
22490;SDS011;11412;50.802;4.350;2022-10-16T09:59:20;5.70;;;1.45;;
22490;SDS011;11412;50.802;4.350;2022-10-16T10:01:49;5.07;;;1.38;;
22490;SDS011;11412;50.802;4.350;2022-10-16T10:04:17;2.10;;;1.20;;
22490;SDS011;11412;50.802;4.350;2022-10-16T10:11:53;2.13;;;1.00;;
22490;SDS011;11412;50.802;4.350;2022-10-16T10:14:31;2.38;;;0.90;;
22490;SDS011;11412;50.802;4.350;2022-10-16T10:17:07;3.97;;;0.98;;
22490;SDS011;11412;50.802;4.350;2022-10-16T10:19:41;2.00;;;0.80;;
22490;SDS011;11412;50.802;4.350;2022-10-16T10:22:16;6.70;;;0.90;;
22490;SDS011;11412;50.802;4.350;2022-10-16T10:24:43;4.07;;;1.45;;
22490;SDS011;11412;50.802;4.350;2022-10-16T10:27:21;2.58;;;1.20;;
22490;SDS011;11412;50.802;4.350;2022-10-16T10:30:08;4.05;;;0.90;;
22490;SDS011;11412;50.802;4.350;2022-10-16T10:35:33;5.28;;;1.60;;
22490;SDS011;11412;50.802;4.350;2022-10-16T10:40:52;1.77;;;1.00;;
22490;SDS011;11412;50.802;4.350;2022-10-16T10:43:57;4.63;;;1.20;;
22490;SDS011;11412;50.802;4.350;2022-10-16T10:46:41;5.13;;;0.90;;
22490;SDS011;11412;50.802;4.350;2022-10-16T11:05:30;1.20;;;0.80;;
22490;SDS011;11412;50.802;4.350;2022-10-16T11:08:09;1.48;;;0.80;;
22490;SDS011;11412;50.802;4.350;2022-10-16T11:19:10;3.63;;;0.70;;
22490;SDS011;11412;50.802;4.350;2022-10-16T11:21:43;4.05;;;0.80;;
22490;SDS011;11412;50.802;4.350;2022-10-16T11:24:39;1.95;;;0.73;;
22490;SDS011;11412;50.802;4.350;2022-10-16T11:27:09;2.55;;;1.10;;
22490;SDS011;11412;50.802;4.350;2022-10-16T11:29:44;4.07;;;0.93;;
22490;SDS011;11412;50.802;4.350;2022-10-16T11:32:54;2.72;;;1.00;;
22490;SDS011;11412;50.802;4.350;2022-10-16T11:35:25;5.40;;;0.70;;
22490;SDS011;11412;50.802;4.350;2022-10-16T11:38:13;2.75;;;1.05;;
22490;SDS011;11412;50.802;4.350;2022-10-16T11:40:43;4.85;;;0.88;;
22490;SDS011;11412;50.802;4.350;2022-10-16T11:45:51;2.30;;;0.65;;
22490;SDS011;11412;50.802;4.350;2022-10-16T11:48:27;3.00;;;0.70;;
22490;SDS011;11412;50.802;4.350;2022-10-16T11:51:07;3.30;;;0.60;;
22490;SDS011;11412;50.802;4.350;2022-10-16T11:53:46;2.20;;;0.80;;
22490;SDS011;11412;50.802;4.350;2022-10-16T11:56:24;2.75;;;0.93;;
22490;SDS011;11412;50.802;4.350;2022-10-16T12:01:40;0.75;;;0.60;;
22490;SDS011;11412;50.802;4.350;2022-10-16T12:04:33;4.90;;;0.90;;
22490;SDS011;11412;50.802;4.350;2022-10-16T12:07:18;2.15;;;0.90;;
22490;SDS011;11412;50.802;4.350;2022-10-16T12:09:51;2.15;;;0.90;;
22490;SDS011;11412;50.802;4.350;2022-10-16T12:12:27;1.48;;;0.90;;
22490;SDS011;11412;50.802;4.350;2022-10-16T12:15:00;2.60;;;0.73;;
22490;SDS011;11412;50.802;4.350;2022-10-16T12:17:36;3.50;;;0.88;;
22490;SDS011;11412;50.802;4.350;2022-10-16T12:20:44;3.22;;;0.70;;
22490;SDS011;11412;50.802;4.350;2022-10-16T12:25:36;2.53;;;0.60;;
22490;SDS011;11412;50.802;4.350;2022-10-16T12:30:40;2.10;;;0.73;;
22490;SDS011;11412;50.802;4.350;2022-10-16T12:33:21;3.53;;;0.52;;
22490;SDS011;11412;50.802;4.350;2022-10-16T12:35:51;3.17;;;0.70;;
22490;SDS011;11412;50.802;4.350;2022-10-16T12:38:26;2.10;;;0.68;;
22490;SDS011;11412;50.802;4.350;2022-10-16T12:41:10;4.32;;;0.80;;
22490;SDS011;11412;50.802;4.350;2022-10-16T12:48:45;0.68;;;0.68;;
22490;SDS011;11412;50.802;4.350;2022-10-16T12:51:33;2.88;;;0.90;;
22490;SDS011;11412;50.802;4.350;2022-10-16T12:56:58;4.07;;;0.70;;
22490;SDS011;11412;50.802;4.350;2022-10-16T13:30:45;1.98;;;0.85;;
22490;SDS011;11412;50.802;4.350;2022-10-16T13:33:39;1.08;;;0.70;;
22490;SDS011;11412;50.802;4.350;2022-10-16T13:36:17;4.72;;;0.80;;
22490;SDS011;11412;50.802;4.350;2022-10-16T13:38:48;3.35;;;0.88;;
22490;SDS011;11412;50.802;4.350;2022-10-16T13:41:17;1.10;;;0.70;;
22490;SDS011;11412;50.802;4.350;2022-10-16T13:43:45;2.33;;;0.63;;
22490;SDS011;11412;50.802;4.350;2022-10-16T13:46:16;2.83;;;0.70;;
22490;SDS011;11412;50.802;4.350;2022-10-16T13:48:59;0.93;;;0.68;;
22490;SDS011;11412;50.802;4.350;2022-10-16T13:51:29;3.47;;;0.77;;
22490;SDS011;11412;50.802;4.350;2022-10-16T13:53:56;5.88;;;0.98;;
22490;SDS011;11412;50.802;4.350;2022-10-16T13:56:22;3.08;;;0.80;;
22490;SDS011;11412;50.802;4.350;2022-10-16T13:58:59;2.08;;;0.50;;
22490;SDS011;11412;50.802;4.350;2022-10-16T14:01:30;2.33;;;0.88;;
22490;SDS011;11412;50.802;4.350;2022-10-16T14:04:00;2.10;;;0.90;;
22490;SDS011;11412;50.802;4.350;2022-10-16T14:06:32;2.58;;;0.60;;
22490;SDS011;11412;50.802;4.350;2022-10-16T14:11:29;1.30;;;0.60;;
22490;SDS011;11412;50.802;4.350;2022-10-16T14:13:55;2.33;;;0.55;;
22490;SDS011;11412;50.802;4.350;2022-10-16T14:16:25;5.93;;;0.98;;
22490;SDS011;11412;50.802;4.350;2022-10-16T14:18:57;2.80;;;0.90;;
22490;SDS011;11412;50.802;4.350;2022-10-16T14:21:25;2.22;;;0.75;;
22490;SDS011;11412;50.802;4.350;2022-10-16T14:23:51;0.75;;;0.65;;
22490;SDS011;11412;50.802;4.350;2022-10-16T14:26:20;2.22;;;0.82;;
22490;SDS011;11412;50.802;4.350;2022-10-16T14:29:01;4.60;;;1.00;;
22490;SDS011;11412;50.802;4.350;2022-10-16T14:31:39;1.77;;;0.73;;
22490;SDS011;11412;50.802;4.350;2022-10-16T14:36:52;3.92;;;0.90;;
22490;SDS011;11412;50.802;4.350;2022-10-16T14:39:22;4.40;;;0.90;;
22490;SDS011;11412;50.802;4.350;2022-10-16T14:41:50;3.03;;;0.95;;
22490;SDS011;11412;50.802;4.350;2022-10-16T14:44:19;2.42;;;0.90;;
22490;SDS011;11412;50.802;4.350;2022-10-16T14:46:52;1.80;;;0.95;;
22490;SDS011;11412;50.802;4.350;2022-10-16T14:49:18;2.33;;;1.02;;
22490;SDS011;11412;50.802;4.350;2022-10-16T14:51:45;4.97;;;1.50;;
22490;SDS011;11412;50.802;4.350;2022-10-16T14:54:12;1.90;;;0.80;;
22490;SDS011;11412;50.802;4.350;2022-10-16T14:56:52;2.28;;;1.10;;
22490;SDS011;11412;50.802;4.350;2022-10-16T14:59:30;3.42;;;1.00;;
22490;SDS011;11412;50.802;4.350;2022-10-16T15:02:00;6.25;;;1.50;;
22490;SDS011;11412;50.802;4.350;2022-10-16T15:04:41;2.35;;;0.80;;
22490;SDS011;11412;50.802;4.350;2022-10-16T15:07:07;3.40;;;1.17;;
22490;SDS011;11412;50.802;4.350;2022-10-16T15:09:33;3.38;;;1.05;;
22490;SDS011;11412;50.802;4.350;2022-10-16T15:11:58;4.80;;;1.15;;
22490;SDS011;11412;50.802;4.350;2022-10-16T15:14:24;2.22;;;1.13;;
22490;SDS011;11412;50.802;4.350;2022-10-16T15:16:49;2.67;;;1.08;;
22490;SDS011;11412;50.802;4.350;2022-10-16T15:19:15;4.32;;;1.67;;
22490;SDS011;11412;50.802;4.350;2022-10-16T15:21:41;2.53;;;1.13;;
22490;SDS011;11412;50.802;4.350;2022-10-16T15:24:09;1.65;;;1.30;;
22490;SDS011;11412;50.802;4.350;2022-10-16T15:26:37;3.35;;;0.98;;
22490;SDS011;11412;50.802;4.350;2022-10-16T15:29:04;2.92;;;1.00;;
22490;SDS011;11412;50.802;4.350;2022-10-16T15:31:30;4.25;;;1.35;;
22490;SDS011;11412;50.802;4.350;2022-10-16T15:33:56;3.75;;;1.23;;
22490;SDS011;11412;50.802;4.350;2022-10-16T15:36:36;5.32;;;1.27;;
22490;SDS011;11412;50.802;4.350;2022-10-16T15:39:03;1.80;;;1.10;;
22490;SDS011;11412;50.802;4.350;2022-10-16T15:41:30;2.58;;;0.95;;
22490;SDS011;11412;50.802;4.350;2022-10-16T15:43:56;5.13;;;1.08;;
22490;SDS011;11412;50.802;4.350;2022-10-16T15:46:22;3.58;;;1.20;;
22490;SDS011;11412;50.802;4.350;2022-10-16T15:48:49;5.90;;;1.50;;
22490;SDS011;11412;50.802;4.350;2022-10-16T15:51:16;3.58;;;1.65;;
22490;SDS011;11412;50.802;4.350;2022-10-16T15:53:42;4.15;;;1.83;;
22490;SDS011;11412;50.802;4.350;2022-10-16T15:56:11;4.00;;;1.85;;
22490;SDS011;11412;50.802;4.350;2022-10-16T15:58:37;2.30;;;1.70;;
22490;SDS011;11412;50.802;4.350;2022-10-16T16:01:03;2.72;;;1.50;;
22490;SDS011;11412;50.802;4.350;2022-10-16T16:03:29;4.45;;;2.08;;
22490;SDS011;11412;50.802;4.350;2022-10-16T16:05:55;3.67;;;1.88;;
22490;SDS011;11412;50.802;4.350;2022-10-16T16:08:21;5.78;;;1.85;;
22490;SDS011;11412;50.802;4.350;2022-10-16T16:13:43;3.50;;;1.52;;
22490;SDS011;11412;50.802;4.350;2022-10-16T16:16:09;2.88;;;1.20;;
22490;SDS011;11412;50.802;4.350;2022-10-16T16:18:36;2.70;;;1.50;;
22490;SDS011;11412;50.802;4.350;2022-10-16T16:21:03;3.03;;;1.50;;
22490;SDS011;11412;50.802;4.350;2022-10-16T16:23:29;1.23;;;1.10;;
22490;SDS011;11412;50.802;4.350;2022-10-16T16:28:38;4.72;;;1.70;;
22490;SDS011;11412;50.802;4.350;2022-10-16T16:31:04;5.95;;;1.73;;
22490;SDS011;11412;50.802;4.350;2022-10-16T16:33:30;2.85;;;1.50;;
22490;SDS011;11412;50.802;4.350;2022-10-16T16:35:57;2.83;;;1.83;;
22490;SDS011;11412;50.802;4.350;2022-10-16T16:38:23;2.40;;;1.60;;
22490;SDS011;11412;50.802;4.350;2022-10-16T16:40:50;2.90;;;1.42;;
22490;SDS011;11412;50.802;4.350;2022-10-16T16:43:17;2.72;;;1.50;;
22490;SDS011;11412;50.802;4.350;2022-10-16T16:45:43;3.33;;;1.67;;
22490;SDS011;11412;50.802;4.350;2022-10-16T16:48:08;5.90;;;2.58;;
22490;SDS011;11412;50.802;4.350;2022-10-16T16:50:37;4.78;;;3.08;;
22490;SDS011;11412;50.802;4.350;2022-10-16T16:53:03;4.05;;;2.42;;
22490;SDS011;11412;50.802;4.350;2022-10-16T16:55:28;4.25;;;2.28;;
22490;SDS011;11412;50.802;4.350;2022-10-16T16:57:57;2.30;;;2.00;;
22490;SDS011;11412;50.802;4.350;2022-10-16T17:00:27;5.40;;;2.45;;
22490;SDS011;11412;50.802;4.350;2022-10-16T17:02:53;10.95;;;3.35;;
22490;SDS011;11412;50.802;4.350;2022-10-16T17:05:19;9.73;;;3.55;;
22490;SDS011;11412;50.802;4.350;2022-10-16T17:07:45;12.80;;;4.70;;
22490;SDS011;11412;50.802;4.350;2022-10-16T17:10:10;12.57;;;3.70;;
22490;SDS011;11412;50.802;4.350;2022-10-16T17:12:36;9.70;;;2.88;;
22490;SDS011;11412;50.802;4.350;2022-10-16T17:15:02;8.80;;;2.67;;
22490;SDS011;11412;50.802;4.350;2022-10-16T17:17:29;6.68;;;2.90;;
22490;SDS011;11412;50.802;4.350;2022-10-16T17:19:55;21.45;;;6.22;;